Terminal Aerodrome Forecast
Issued by NWS

Home | Current Version | Previous Version | Text Only | Print | Product List | Glossary On
Versions: 1 2 3 4 5 6 7 8 9 10 11 12 13 14
000
FTUS42 KTBW 282300
TAFPGD
TAF
KPGD 282332Z 2900/2924 VRB05KT P6SM VCTS BKN060CB
     FM290300 13004KT P6SM FEW060 BKN250
     FM291800 18007KT P6SM VCTS SCT050CB=

USA.gov is the U.S. government's official web portal to all federal, state and local government web resources and services.